SGAS METAR and TAF weather

Enter ICAO airport designator

Example: see airport list

Station Type Date Time Source
SGAS METAR 2016/07/27 06:00 UTC NOAA

SGAS 270600Z 18010KT CAVOK 10/07 Q1024

Station Type Date Time Source
SGAS Decoded METAR 2016/07/27 06:00 UTC NOAA

Asuncion / Aeropuerto, Paraguay (SGAS) 25-16S 057-38W 101M
Jul 27, 2016 - 02:00 AM EDT / 2016.07.27 0600 UTC
Wind: from the S (180 degrees) at 12 MPH (10 KT):0
Visibility: greater than 7 mile(s):0
Temperature: 50 F (10 C)
Dew Point: 44 F (7 C)
Relative Humidity: 81%
Pressure (altimeter): 30.24 in. Hg (1024 hPa)
ob: SGAS 270600Z 18010KT CAVOK 10/07 Q1024
cycle: 6

Station Type Date Time Source
SGAS TAF 2016/07/27 06:22 UTC NOAA

TAF SGAS 270305Z 2706/2806 22002KT CAVOK TX18/2718Z TN08/2710Z
BECMG 2707/2710 18011KT 7000 NSC
BECMG 2712/2714 18014KT CAVOK
BECMG 2716/2718 16008KT 9999 FEW033